sensor_id;sensor_type;location;lat;lon;timestamp;temperature;humidity
2489;DHT22;1255;48.716;9.124;2023-11-19T00:02:16;7.10;99.90
2489;DHT22;1255;48.716;9.124;2023-11-19T00:04:44;7.10;99.90
2489;DHT22;1255;48.716;9.124;2023-11-19T00:07:10;7.20;99.90
2489;DHT22;1255;48.716;9.124;2023-11-19T00:09:38;7.30;99.90
2489;DHT22;1255;48.716;9.124;2023-11-19T00:12:06;7.30;99.90
2489;DHT22;1255;48.716;9.124;2023-11-19T00:14:33;7.40;99.90
2489;DHT22;1255;48.716;9.124;2023-11-19T04:33:25;9.80;99.90
2489;DHT22;1255;48.716;9.124;2023-11-19T04:35:52;9.90;99.90
2489;DHT22;1255;48.716;9.124;2023-11-19T04:38:19;9.90;99.90
2489;DHT22;1255;48.716;9.124;2023-11-19T04:40:46;9.90;99.90
2489;DHT22;1255;48.716;9.124;2023-11-19T04:43:13;9.90;99.90
2489;DHT22;1255;48.716;9.124;2023-11-19T04:45:41;9.90;99.90
2489;DHT22;1255;48.716;9.124;2023-11-19T04:48:08;10.00;99.90
2489;DHT22;1255;48.716;9.124;2023-11-19T04:50:37;10.00;99.90
2489;DHT22;1255;48.716;9.124;2023-11-19T04:53:04;10.00;99.90
2489;DHT22;1255;48.716;9.124;2023-11-19T04:55:30;10.00;99.90
2489;DHT22;1255;48.716;9.124;2023-11-19T04:57:58;10.00;99.90
2489;DHT22;1255;48.716;9.124;2023-11-19T05:00:24;10.00;99.90
2489;DHT22;1255;48.716;9.124;2023-11-19T05:02:51;10.00;99.90
2489;DHT22;1255;48.716;9.124;2023-11-19T05:05:18;10.00;99.90
2489;DHT22;1255;48.716;9.124;2023-11-19T05:07:47;10.00;99.90
2489;DHT22;1255;48.716;9.124;2023-11-19T05:10:14;10.00;99.90
2489;DHT22;1255;48.716;9.124;2023-11-19T05:12:41;10.00;99.90
2489;DHT22;1255;48.716;9.124;2023-11-19T05:15:08;10.00;99.90
2489;DHT22;1255;48.716;9.124;2023-11-19T05:17:37;10.00;99.90
2489;DHT22;1255;48.716;9.124;2023-11-19T05:20:03;10.00;99.90
2489;DHT22;1255;48.716;9.124;2023-11-19T05:22:30;10.00;99.90
2489;DHT22;1255;48.716;9.124;2023-11-19T05:25:02;10.00;99.90
2489;DHT22;1255;48.716;9.124;2023-11-19T05:27:31;10.00;99.90
2489;DHT22;1255;48.716;9.124;2023-11-19T05:30:02;10.00;99.90
2489;DHT22;1255;48.716;9.124;2023-11-19T05:32:41;10.00;99.90
2489;DHT22;1255;48.716;9.124;2023-11-19T05:35:08;10.10;99.90
2489;DHT22;1255;48.716;9.124;2023-11-19T05:37:35;10.10;99.90
2489;DHT22;1255;48.716;9.124;2023-11-19T05:40:05;10.10;99.90
2489;DHT22;1255;48.716;9.124;2023-11-19T05:42:39;10.10;99.90
2489;DHT22;1255;48.716;9.124;2023-11-19T05:45:07;10.10;99.90
2489;DHT22;1255;48.716;9.124;2023-11-19T05:47:34;10.10;99.90
2489;DHT22;1255;48.716;9.124;2023-11-19T05:50:01;10.10;99.90
2489;DHT22;1255;48.716;9.124;2023-11-19T05:52:29;10.10;99.90
2489;DHT22;1255;48.716;9.124;2023-11-19T05:54:59;10.10;99.90
2489;DHT22;1255;48.716;9.124;2023-11-19T05:57:29;10.10;99.90
2489;DHT22;1255;48.716;9.124;2023-11-19T05:59:56;10.10;99.90
2489;DHT22;1255;48.716;9.124;2023-11-19T06:02:24;10.10;99.90
2489;DHT22;1255;48.716;9.124;2023-11-19T06:04:52;10.10;99.90
2489;DHT22;1255;48.716;9.124;2023-11-19T06:07:19;10.10;99.90
2489;DHT22;1255;48.716;9.124;2023-11-19T06:09:46;10.10;99.90
2489;DHT22;1255;48.716;9.124;2023-11-19T06:12:13;10.20;99.90
2489;DHT22;1255;48.716;9.124;2023-11-19T06:14:41;10.20;99.90
2489;DHT22;1255;48.716;9.124;2023-11-19T06:17:08;10.20;99.90
2489;DHT22;1255;48.716;9.124;2023-11-19T06:19:36;10.20;99.90
2489;DHT22;1255;48.716;9.124;2023-11-19T06:22:03;10.20;99.90
2489;DHT22;1255;48.716;9.124;2023-11-19T06:24:31;10.20;99.90
2489;DHT22;1255;48.716;9.124;2023-11-19T06:26:57;10.20;99.90
2489;DHT22;1255;48.716;9.124;2023-11-19T06:29:24;10.20;99.90
2489;DHT22;1255;48.716;9.124;2023-11-19T06:31:52;10.20;99.90
2489;DHT22;1255;48.716;9.124;2023-11-19T06:34:19;10.20;99.90
2489;DHT22;1255;48.716;9.124;2023-11-19T06:36:46;10.20;99.90
2489;DHT22;1255;48.716;9.124;2023-11-19T06:39:13;10.20;99.90
2489;DHT22;1255;48.716;9.124;2023-11-19T06:41:44;10.20;99.90
2489;DHT22;1255;48.716;9.124;2023-11-19T06:44:11;10.20;99.90
2489;DHT22;1255;48.716;9.124;2023-11-19T06:46:38;10.30;99.90
2489;DHT22;1255;48.716;9.124;2023-11-19T06:49:06;10.30;99.90
2489;DHT22;1255;48.716;9.124;2023-11-19T06:51:34;10.30;99.90
2489;DHT22;1255;48.716;9.124;2023-11-19T06:54:01;10.20;99.90
2489;DHT22;1255;48.716;9.124;2023-11-19T06:56:27;10.30;99.90
2489;DHT22;1255;48.716;9.124;2023-11-19T06:58:54;10.30;99.90
2489;DHT22;1255;48.716;9.124;2023-11-19T07:01:24;10.30;99.90
2489;DHT22;1255;48.716;9.124;2023-11-19T07:03:54;10.30;99.90
2489;DHT22;1255;48.716;9.124;2023-11-19T07:06:24;10.30;99.90
2489;DHT22;1255;48.716;9.124;2023-11-19T07:08:51;10.30;99.90
2489;DHT22;1255;48.716;9.124;2023-11-19T07:11:18;10.30;99.90
2489;DHT22;1255;48.716;9.124;2023-11-19T07:13:45;10.40;99.90
2489;DHT22;1255;48.716;9.124;2023-11-19T07:16:14;10.40;99.90
2489;DHT22;1255;48.716;9.124;2023-11-19T07:18:41;10.40;99.90
2489;DHT22;1255;48.716;9.124;2023-11-19T07:21:21;10.40;99.90
2489;DHT22;1255;48.716;9.124;2023-11-19T07:23:49;10.40;99.90
2489;DHT22;1255;48.716;9.124;2023-11-19T07:26:17;10.40;99.90
2489;DHT22;1255;48.716;9.124;2023-11-19T07:28:44;10.50;99.90
2489;DHT22;1255;48.716;9.124;2023-11-19T07:31:11;10.50;99.90
2489;DHT22;1255;48.716;9.124;2023-11-19T07:33:39;10.40;99.90
2489;DHT22;1255;48.716;9.124;2023-11-19T07:36:08;10.50;99.90
2489;DHT22;1255;48.716;9.124;2023-11-19T07:38:35;10.50;99.90
2489;DHT22;1255;48.716;9.124;2023-11-19T07:41:04;10.50;99.90
2489;DHT22;1255;48.716;9.124;2023-11-19T07:43:32;10.50;99.90
2489;DHT22;1255;48.716;9.124;2023-11-19T07:45:59;10.50;99.90
2489;DHT22;1255;48.716;9.124;2023-11-19T07:48:26;10.50;99.90
2489;DHT22;1255;48.716;9.124;2023-11-19T07:50:53;10.60;99.90
2489;DHT22;1255;48.716;9.124;2023-11-19T07:53:20;10.60;99.90
2489;DHT22;1255;48.716;9.124;2023-11-19T07:55:47;10.60;99.90
2489;DHT22;1255;48.716;9.124;2023-11-19T07:58:21;10.60;99.90
2489;DHT22;1255;48.716;9.124;2023-11-19T08:00:49;10.60;99.90
2489;DHT22;1255;48.716;9.124;2023-11-19T08:03:22;10.60;99.90
2489;DHT22;1255;48.716;9.124;2023-11-19T08:05:56;10.60;99.90
2489;DHT22;1255;48.716;9.124;2023-11-19T08:08:27;10.60;99.90
2489;DHT22;1255;48.716;9.124;2023-11-19T08:10:59;10.70;99.90
2489;DHT22;1255;48.716;9.124;2023-11-19T08:13:32;10.70;99.90
2489;DHT22;1255;48.716;9.124;2023-11-19T08:16:00;10.70;99.90
2489;DHT22;1255;48.716;9.124;2023-11-19T08:18:27;10.70;99.90
2489;DHT22;1255;48.716;9.124;2023-11-19T08:20:55;10.80;99.90
2489;DHT22;1255;48.716;9.124;2023-11-19T08:23:25;10.90;99.90
2489;DHT22;1255;48.716;9.124;2023-11-19T08:26:01;10.90;99.90
2489;DHT22;1255;48.716;9.124;2023-11-19T08:28:33;11.00;99.90
2489;DHT22;1255;48.716;9.124;2023-11-19T08:31:02;11.10;99.90
2489;DHT22;1255;48.716;9.124;2023-11-19T08:33:32;11.50;99.90
2489;DHT22;1255;48.716;9.124;2023-11-19T08:35:59;12.40;99.90
2489;DHT22;1255;48.716;9.124;2023-11-19T08:38:26;13.20;99.90
2489;DHT22;1255;48.716;9.124;2023-11-19T08:40:53;14.50;99.90
2489;DHT22;1255;48.716;9.124;2023-11-19T08:43:25;15.60;99.90
2489;DHT22;1255;48.716;9.124;2023-11-19T08:45:53;16.00;99.90
2489;DHT22;1255;48.716;9.124;2023-11-19T08:48:20;15.90;99.90
2489;DHT22;1255;48.716;9.124;2023-11-19T08:50:47;15.40;99.90
2489;DHT22;1255;48.716;9.124;2023-11-19T08:53:15;14.80;99.90
2489;DHT22;1255;48.716;9.124;2023-11-19T08:55:44;14.10;99.90
2489;DHT22;1255;48.716;9.124;2023-11-19T08:58:13;13.80;99.90
2489;DHT22;1255;48.716;9.124;2023-11-19T09:00:41;14.90;99.90
2489;DHT22;1255;48.716;9.124;2023-11-19T09:03:14;15.80;99.90
2489;DHT22;1255;48.716;9.124;2023-11-19T09:05:43;16.20;99.90
2489;DHT22;1255;48.716;9.124;2023-11-19T09:08:13;16.70;99.90
2489;DHT22;1255;48.716;9.124;2023-11-19T09:10:43;16.90;99.90
2489;DHT22;1255;48.716;9.124;2023-11-19T09:13:12;16.60;99.90
2489;DHT22;1255;48.716;9.124;2023-11-19T09:15:40;15.70;99.90
2489;DHT22;1255;48.716;9.124;2023-11-19T09:18:11;15.10;99.90
2489;DHT22;1255;48.716;9.124;2023-11-19T09:20:56;14.70;99.90
2489;DHT22;1255;48.716;9.124;2023-11-19T09:33:20;15.00;99.90
2489;DHT22;1255;48.716;9.124;2023-11-19T09:35:49;14.80;99.90
2489;DHT22;1255;48.716;9.124;2023-11-19T09:38:16;14.60;99.90
2489;DHT22;1255;48.716;9.124;2023-11-19T09:40:43;14.70;99.90
2489;DHT22;1255;48.716;9.124;2023-11-19T09:43:10;15.80;99.90
2489;DHT22;1255;48.716;9.124;2023-11-19T09:45:47;16.40;99.90
2489;DHT22;1255;48.716;9.124;2023-11-19T09:48:16;16.30;99.90
2489;DHT22;1255;48.716;9.124;2023-11-19T09:50:44;16.10;99.90
2489;DHT22;1255;48.716;9.124;2023-11-19T09:53:12;17.20;99.90
2489;DHT22;1255;48.716;9.124;2023-11-19T09:55:39;17.90;99.90
2489;DHT22;1255;48.716;9.124;2023-11-19T09:58:08;17.90;99.90
2489;DHT22;1255;48.716;9.124;2023-11-19T10:00:39;18.60;99.90
2489;DHT22;1255;48.716;9.124;2023-11-19T10:03:07;19.40;99.90
2489;DHT22;1255;48.716;9.124;2023-11-19T10:05:36;20.30;99.90
2489;DHT22;1255;48.716;9.124;2023-11-19T10:08:04;20.60;99.90
2489;DHT22;1255;48.716;9.124;2023-11-19T10:10:32;20.10;99.90
2489;DHT22;1255;48.716;9.124;2023-11-19T10:12:59;18.70;99.90
2489;DHT22;1255;48.716;9.124;2023-11-19T10:15:27;17.60;99.90
2489;DHT22;1255;48.716;9.124;2023-11-19T10:17:55;17.60;99.90
2489;DHT22;1255;48.716;9.124;2023-11-19T10:20:22;19.80;99.90
2489;DHT22;1255;48.716;9.124;2023-11-19T10:22:52;22.30;99.90
2489;DHT22;1255;48.716;9.124;2023-11-19T10:25:23;23.80;99.90
2489;DHT22;1255;48.716;9.124;2023-11-19T10:27:52;24.60;99.90
2489;DHT22;1255;48.716;9.124;2023-11-19T10:30:21;24.30;99.90
2489;DHT22;1255;48.716;9.124;2023-11-19T10:33:03;23.40;99.90
2489;DHT22;1255;48.716;9.124;2023-11-19T10:35:31;22.00;99.90
2489;DHT22;1255;48.716;9.124;2023-11-19T10:37:59;20.90;99.90
2489;DHT22;1255;48.716;9.124;2023-11-19T10:40:37;21.10;99.90
2489;DHT22;1255;48.716;9.124;2023-11-19T10:43:06;23.10;99.90
2489;DHT22;1255;48.716;9.124;2023-11-19T10:45:34;24.30;99.90
2489;DHT22;1255;48.716;9.124;2023-11-19T10:48:02;25.90;99.90
2489;DHT22;1255;48.716;9.124;2023-11-19T10:50:30;26.30;99.90
2489;DHT22;1255;48.716;9.124;2023-11-19T10:52:57;25.30;99.90
2489;DHT22;1255;48.716;9.124;2023-11-19T10:55:27;23.70;99.90
2489;DHT22;1255;48.716;9.124;2023-11-19T10:57:58;21.80;99.90
2489;DHT22;1255;48.716;9.124;2023-11-19T11:00:29;20.40;99.90
2489;DHT22;1255;48.716;9.124;2023-11-19T11:03:01;19.90;99.90
2489;DHT22;1255;48.716;9.124;2023-11-19T11:05:32;21.40;99.90
2489;DHT22;1255;48.716;9.124;2023-11-19T11:08:00;22.50;99.90
2489;DHT22;1255;48.716;9.124;2023-11-19T11:10:32;22.30;99.90
2489;DHT22;1255;48.716;9.124;2023-11-19T11:13:03;21.00;99.90
2489;DHT22;1255;48.716;9.124;2023-11-19T11:15:31;19.80;99.90
2489;DHT22;1255;48.716;9.124;2023-11-19T11:18:01;18.80;99.90
2489;DHT22;1255;48.716;9.124;2023-11-19T11:20:29;18.20;99.90
2489;DHT22;1255;48.716;9.124;2023-11-19T11:23:19;17.90;99.90
2489;DHT22;1255;48.716;9.124;2023-11-19T11:25:56;17.80;99.90
2489;DHT22;1255;48.716;9.124;2023-11-19T11:28:30;17.40;99.90
2489;DHT22;1255;48.716;9.124;2023-11-19T11:31:09;17.10;99.90
2489;DHT22;1255;48.716;9.124;2023-11-19T11:33:57;16.70;99.90
2489;DHT22;1255;48.716;9.124;2023-11-19T11:36:26;16.20;99.90
2489;DHT22;1255;48.716;9.124;2023-11-19T11:38:58;15.80;99.90
2489;DHT22;1255;48.716;9.124;2023-11-19T11:41:29;15.50;99.90
2489;DHT22;1255;48.716;9.124;2023-11-19T11:43:56;15.40;99.90
2489;DHT22;1255;48.716;9.124;2023-11-19T11:46:56;15.20;99.90
2489;DHT22;1255;48.716;9.124;2023-11-19T11:49:30;15.00;99.90
2489;DHT22;1255;48.716;9.124;2023-11-19T11:52:01;14.90;99.90
2489;DHT22;1255;48.716;9.124;2023-11-19T11:54:30;14.80;99.90
2489;DHT22;1255;48.716;9.124;2023-11-19T11:57:08;14.70;99.90
2489;DHT22;1255;48.716;9.124;2023-11-19T11:59:48;14.60;99.90
2489;DHT22;1255;48.716;9.124;2023-11-19T12:02:21;14.60;99.90
2489;DHT22;1255;48.716;9.124;2023-11-19T12:04:50;14.80;99.90
2489;DHT22;1255;48.716;9.124;2023-11-19T12:07:23;15.20;99.90
2489;DHT22;1255;48.716;9.124;2023-11-19T12:09:53;15.70;99.90
2489;DHT22;1255;48.716;9.124;2023-11-19T12:12:27;16.40;99.90
2489;DHT22;1255;48.716;9.124;2023-11-19T12:15:04;16.70;99.90
2489;DHT22;1255;48.716;9.124;2023-11-19T12:17:44;16.40;99.90
2489;DHT22;1255;48.716;9.124;2023-11-19T12:20:15;16.30;99.90
2489;DHT22;1255;48.716;9.124;2023-11-19T12:22:43;16.20;99.90
2489;DHT22;1255;48.716;9.124;2023-11-19T12:25:11;15.90;99.90
2489;DHT22;1255;48.716;9.124;2023-11-19T12:27:40;15.60;99.90
2489;DHT22;1255;48.716;9.124;2023-11-19T12:30:07;15.40;99.90
2489;DHT22;1255;48.716;9.124;2023-11-19T12:32:39;15.40;99.90
2489;DHT22;1255;48.716;9.124;2023-11-19T12:35:09;15.40;99.90
2489;DHT22;1255;48.716;9.124;2023-11-19T12:37:41;15.50;99.90
2489;DHT22;1255;48.716;9.124;2023-11-19T12:40:16;15.30;99.90
2489;DHT22;1255;48.716;9.124;2023-11-19T12:42:44;15.20;99.90
2489;DHT22;1255;48.716;9.124;2023-11-19T12:45:12;15.20;99.90
2489;DHT22;1255;48.716;9.124;2023-11-19T12:47:39;15.20;99.90
2489;DHT22;1255;48.716;9.124;2023-11-19T12:50:09;15.20;99.90
2489;DHT22;1255;48.716;9.124;2023-11-19T12:52:37;15.20;99.90
2489;DHT22;1255;48.716;9.124;2023-11-19T12:55:05;15.20;99.90
2489;DHT22;1255;48.716;9.124;2023-11-19T12:57:37;15.20;99.90
2489;DHT22;1255;48.716;9.124;2023-11-19T13:00:05;15.40;99.90
2489;DHT22;1255;48.716;9.124;2023-11-19T13:02:46;15.70;99.90
2489;DHT22;1255;48.716;9.124;2023-11-19T13:05:29;15.90;99.90
2489;DHT22;1255;48.716;9.124;2023-11-19T13:08:03;15.80;99.90
2489;DHT22;1255;48.716;9.124;2023-11-19T13:10:31;15.90;99.90
2489;DHT22;1255;48.716;9.124;2023-11-19T13:13:06;16.50;99.90
2489;DHT22;1255;48.716;9.124;2023-11-19T13:15:34;16.60;99.90
2489;DHT22;1255;48.716;9.124;2023-11-19T13:18:01;16.40;99.90
2489;DHT22;1255;48.716;9.124;2023-11-19T13:20:30;16.00;99.90
2489;DHT22;1255;48.716;9.124;2023-11-19T13:22:59;15.80;99.90
2489;DHT22;1255;48.716;9.124;2023-11-19T13:25:26;15.60;99.90
2489;DHT22;1255;48.716;9.124;2023-11-19T13:27:53;15.50;99.90
2489;DHT22;1255;48.716;9.124;2023-11-19T13:30:20;15.40;99.90
2489;DHT22;1255;48.716;9.124;2023-11-19T13:32:47;15.70;99.90
2489;DHT22;1255;48.716;9.124;2023-11-19T13:35:15;15.70;99.90
2489;DHT22;1255;48.716;9.124;2023-11-19T13:37:44;15.60;99.90
2489;DHT22;1255;48.716;9.124;2023-11-19T13:40:12;15.60;99.90
2489;DHT22;1255;48.716;9.124;2023-11-19T13:42:40;15.50;99.90
2489;DHT22;1255;48.716;9.124;2023-11-19T13:45:08;15.30;99.90
2489;DHT22;1255;48.716;9.124;2023-11-19T13:47:37;15.00;99.90
2489;DHT22;1255;48.716;9.124;2023-11-19T13:50:07;14.80;99.90
2489;DHT22;1255;48.716;9.124;2023-11-19T13:52:34;14.70;99.90
2489;DHT22;1255;48.716;9.124;2023-11-19T13:55:04;14.50;99.90
2489;DHT22;1255;48.716;9.124;2023-11-19T13:57:31;14.30;99.90
2489;DHT22;1255;48.716;9.124;2023-11-19T13:59:59;14.30;99.90
2489;DHT22;1255;48.716;9.124;2023-11-19T14:02:26;14.20;99.90
2489;DHT22;1255;48.716;9.124;2023-11-19T14:04:53;14.20;99.90
2489;DHT22;1255;48.716;9.124;2023-11-19T14:07:20;14.20;99.90
2489;DHT22;1255;48.716;9.124;2023-11-19T14:09:47;14.10;99.90
2489;DHT22;1255;48.716;9.124;2023-11-19T14:12:15;14.10;99.90
2489;DHT22;1255;48.716;9.124;2023-11-19T14:14:43;14.00;99.90
2489;DHT22;1255;48.716;9.124;2023-11-19T14:17:09;14.00;99.90
2489;DHT22;1255;48.716;9.124;2023-11-19T14:19:38;14.00;99.90
2489;DHT22;1255;48.716;9.124;2023-11-19T14:22:05;14.00;99.90
2489;DHT22;1255;48.716;9.124;2023-11-19T14:24:32;14.00;99.90
2489;DHT22;1255;48.716;9.124;2023-11-19T14:26:59;14.00;99.90
2489;DHT22;1255;48.716;9.124;2023-11-19T14:29:28;14.10;99.90
2489;DHT22;1255;48.716;9.124;2023-11-19T14:31:56;14.20;99.90
2489;DHT22;1255;48.716;9.124;2023-11-19T14:34:24;14.20;99.90
2489;DHT22;1255;48.716;9.124;2023-11-19T14:36:51;14.10;99.90
2489;DHT22;1255;48.716;9.124;2023-11-19T14:39:19;14.10;99.90
2489;DHT22;1255;48.716;9.124;2023-11-19T14:41:46;14.10;99.90
2489;DHT22;1255;48.716;9.124;2023-11-19T14:44:12;14.10;99.90
2489;DHT22;1255;48.716;9.124;2023-11-19T14:46:40;14.00;99.90
2489;DHT22;1255;48.716;9.124;2023-11-19T14:49:07;13.90;99.90
2489;DHT22;1255;48.716;9.124;2023-11-19T14:51:35;13.70;99.90
2489;DHT22;1255;48.716;9.124;2023-11-19T14:54:02;13.70;99.90
2489;DHT22;1255;48.716;9.124;2023-11-19T14:56:29;13.50;99.90
2489;DHT22;1255;48.716;9.124;2023-11-19T14:58:56;13.50;99.90
2489;DHT22;1255;48.716;9.124;2023-11-19T15:01:24;13.40;99.90
2489;DHT22;1255;48.716;9.124;2023-11-19T15:03:52;13.40;99.90
2489;DHT22;1255;48.716;9.124;2023-11-19T15:06:23;13.30;99.90
2489;DHT22;1255;48.716;9.124;2023-11-19T15:08:50;13.20;99.90
2489;DHT22;1255;48.716;9.124;2023-11-19T15:11:17;13.20;99.90
2489;DHT22;1255;48.716;9.124;2023-11-19T15:13:43;13.10;99.90
2489;DHT22;1255;48.716;9.124;2023-11-19T15:16:10;13.00;99.90
2489;DHT22;1255;48.716;9.124;2023-11-19T15:18:39;13.00;99.90
2489;DHT22;1255;48.716;9.124;2023-11-19T15:21:07;13.00;99.90
2489;DHT22;1255;48.716;9.124;2023-11-19T15:23:35;12.90;99.90
2489;DHT22;1255;48.716;9.124;2023-11-19T15:26:03;12.80;99.90
2489;DHT22;1255;48.716;9.124;2023-11-19T15:28:32;12.80;99.90
2489;DHT22;1255;48.716;9.124;2023-11-19T15:30:59;12.70;99.90
2489;DHT22;1255;48.716;9.124;2023-11-19T15:33:26;12.70;99.90
2489;DHT22;1255;48.716;9.124;2023-11-19T15:35:54;12.60;99.90
2489;DHT22;1255;48.716;9.124;2023-11-19T15:38:22;12.60;99.90
2489;DHT22;1255;48.716;9.124;2023-11-19T15:40:49;12.50;99.90
2489;DHT22;1255;48.716;9.124;2023-11-19T15:43:17;12.40;99.90
2489;DHT22;1255;48.716;9.124;2023-11-19T15:45:44;12.40;99.90
2489;DHT22;1255;48.716;9.124;2023-11-19T15:48:11;12.30;99.90
2489;DHT22;1255;48.716;9.124;2023-11-19T15:50:39;12.30;99.90
2489;DHT22;1255;48.716;9.124;2023-11-19T15:53:05;12.20;99.90
2489;DHT22;1255;48.716;9.124;2023-11-19T15:55:33;12.10;99.90
2489;DHT22;1255;48.716;9.124;2023-11-19T15:58:00;12.10;99.90
2489;DHT22;1255;48.716;9.124;2023-11-19T16:00:27;12.00;99.90
2489;DHT22;1255;48.716;9.124;2023-11-19T16:02:54;12.00;99.90
2489;DHT22;1255;48.716;9.124;2023-11-19T16:05:22;11.90;99.90
2489;DHT22;1255;48.716;9.124;2023-11-19T16:07:49;11.90;99.90
2489;DHT22;1255;48.716;9.124;2023-11-19T16:10:15;11.90;99.90
2489;DHT22;1255;48.716;9.124;2023-11-19T16:12:46;11.80;99.90
2489;DHT22;1255;48.716;9.124;2023-11-19T16:15:13;11.70;99.90
2489;DHT22;1255;48.716;9.124;2023-11-19T16:17:41;11.60;99.90
2489;DHT22;1255;48.716;9.124;2023-11-19T16:20:09;11.60;99.90
2489;DHT22;1255;48.716;9.124;2023-11-19T16:22:36;11.50;99.90
2489;DHT22;1255;48.716;9.124;2023-11-19T16:25:06;11.50;99.90
2489;DHT22;1255;48.716;9.124;2023-11-19T16:27:33;11.40;99.90
2489;DHT22;1255;48.716;9.124;2023-11-19T16:30:01;11.40;99.90
2489;DHT22;1255;48.716;9.124;2023-11-19T16:32:28;11.30;99.90
2489;DHT22;1255;48.716;9.124;2023-11-19T16:34:55;11.30;99.90
2489;DHT22;1255;48.716;9.124;2023-11-19T16:37:22;11.20;99.90
2489;DHT22;1255;48.716;9.124;2023-11-19T16:39:48;11.10;99.90
2489;DHT22;1255;48.716;9.124;2023-11-19T16:42:15;11.00;99.90
2489;DHT22;1255;48.716;9.124;2023-11-19T16:44:46;11.00;99.90
2489;DHT22;1255;48.716;9.124;2023-11-19T16:47:14;10.90;99.90
2489;DHT22;1255;48.716;9.124;2023-11-19T16:49:41;10.90;99.90
2489;DHT22;1255;48.716;9.124;2023-11-19T16:52:08;10.90;99.90
2489;DHT22;1255;48.716;9.124;2023-11-19T16:54:35;10.80;99.90
2489;DHT22;1255;48.716;9.124;2023-11-19T16:57:03;10.80;99.90
2489;DHT22;1255;48.716;9.124;2023-11-19T16:59:30;10.80;99.90
2489;DHT22;1255;48.716;9.124;2023-11-19T17:01:56;10.80;99.90
2489;DHT22;1255;48.716;9.124;2023-11-19T17:04:24;10.80;99.90
2489;DHT22;1255;48.716;9.124;2023-11-19T17:06:52;10.80;99.90
2489;DHT22;1255;48.716;9.124;2023-11-19T17:09:19;10.80;99.90
2489;DHT22;1255;48.716;9.124;2023-11-19T17:11:46;10.70;99.90
2489;DHT22;1255;48.716;9.124;2023-11-19T17:14:12;10.70;99.90
2489;DHT22;1255;48.716;9.124;2023-11-19T17:16:39;10.70;99.90
2489;DHT22;1255;48.716;9.124;2023-11-19T17:19:06;10.70;99.90
2489;DHT22;1255;48.716;9.124;2023-11-19T17:21:34;10.70;99.90
2489;DHT22;1255;48.716;9.124;2023-11-19T17:24:01;10.70;99.90
2489;DHT22;1255;48.716;9.124;2023-11-19T17:26:28;10.70;99.90
2489;DHT22;1255;48.716;9.124;2023-11-19T17:28:55;10.70;99.90
2489;DHT22;1255;48.716;9.124;2023-11-19T17:31:21;10.70;99.90
2489;DHT22;1255;48.716;9.124;2023-11-19T17:33:48;10.70;99.90
2489;DHT22;1255;48.716;9.124;2023-11-19T17:36:15;10.80;99.90
2489;DHT22;1255;48.716;9.124;2023-11-19T17:38:43;10.90;99.90
2489;DHT22;1255;48.716;9.124;2023-11-19T17:41:10;11.00;99.90
2489;DHT22;1255;48.716;9.124;2023-11-19T17:43:37;10.90;99.90
2489;DHT22;1255;48.716;9.124;2023-11-19T17:46:05;10.90;99.90
2489;DHT22;1255;48.716;9.124;2023-11-19T17:48:32;10.90;99.90
2489;DHT22;1255;48.716;9.124;2023-11-19T17:50:59;10.90;99.90
2489;DHT22;1255;48.716;9.124;2023-11-19T17:53:26;10.90;99.90
2489;DHT22;1255;48.716;9.124;2023-11-19T17:55:55;10.90;99.90
2489;DHT22;1255;48.716;9.124;2023-11-19T17:58:22;10.90;99.90
2489;DHT22;1255;48.716;9.124;2023-11-19T18:00:49;10.90;99.90
2489;DHT22;1255;48.716;9.124;2023-11-19T18:03:16;10.90;99.90
2489;DHT22;1255;48.716;9.124;2023-11-19T18:05:42;10.90;99.90
2489;DHT22;1255;48.716;9.124;2023-11-19T18:08:09;10.90;99.90
2489;DHT22;1255;48.716;9.124;2023-11-19T18:10:36;10.90;99.90
2489;DHT22;1255;48.716;9.124;2023-11-19T18:13:04;10.80;99.90
2489;DHT22;1255;48.716;9.124;2023-11-19T18:15:32;10.80;99.90
2489;DHT22;1255;48.716;9.124;2023-11-19T18:18:00;10.80;99.90
2489;DHT22;1255;48.716;9.124;2023-11-19T18:20:27;10.90;99.90
2489;DHT22;1255;48.716;9.124;2023-11-19T18:22:53;10.80;99.90
2489;DHT22;1255;48.716;9.124;2023-11-19T18:25:23;10.80;99.90
2489;DHT22;1255;48.716;9.124;2023-11-19T18:27:50;10.80;99.90
2489;DHT22;1255;48.716;9.124;2023-11-19T18:30:18;10.80;99.90
2489;DHT22;1255;48.716;9.124;2023-11-19T18:32:45;10.70;99.90
2489;DHT22;1255;48.716;9.124;2023-11-19T18:35:12;10.70;99.90
2489;DHT22;1255;48.716;9.124;2023-11-19T18:37:42;10.70;99.90
2489;DHT22;1255;48.716;9.124;2023-11-19T18:40:09;10.60;99.90
2489;DHT22;1255;48.716;9.124;2023-11-19T18:42:37;10.60;99.90
2489;DHT22;1255;48.716;9.124;2023-11-19T18:45:04;10.60;99.90
2489;DHT22;1255;48.716;9.124;2023-11-19T18:47:33;10.60;99.90
2489;DHT22;1255;48.716;9.124;2023-11-19T18:50:03;10.60;99.90
2489;DHT22;1255;48.716;9.124;2023-11-19T18:52:30;10.50;99.90
2489;DHT22;1255;48.716;9.124;2023-11-19T18:54:57;10.50;99.90
2489;DHT22;1255;48.716;9.124;2023-11-19T18:57:23;10.50;99.90
2489;DHT22;1255;48.716;9.124;2023-11-19T18:59:50;10.40;99.90
2489;DHT22;1255;48.716;9.124;2023-11-19T19:02:21;10.40;99.90
2489;DHT22;1255;48.716;9.124;2023-11-19T19:04:58;10.40;99.90
2489;DHT22;1255;48.716;9.124;2023-11-19T19:07:33;10.30;99.90
2489;DHT22;1255;48.716;9.124;2023-11-19T19:10:00;10.30;99.90
2489;DHT22;1255;48.716;9.124;2023-11-19T19:12:27;10.30;99.90
2489;DHT22;1255;48.716;9.124;2023-11-19T19:14:54;10.30;99.90
2489;DHT22;1255;48.716;9.124;2023-11-19T19:17:22;10.20;99.90
2489;DHT22;1255;48.716;9.124;2023-11-19T19:19:49;10.30;99.90
2489;DHT22;1255;48.716;9.124;2023-11-19T19:22:17;10.20;99.90
2489;DHT22;1255;48.716;9.124;2023-11-19T19:24:44;10.30;99.90
2489;DHT22;1255;48.716;9.124;2023-11-19T19:27:10;10.30;99.90
2489;DHT22;1255;48.716;9.124;2023-11-19T19:29:37;10.30;99.90
2489;DHT22;1255;48.716;9.124;2023-11-19T19:32:04;10.30;99.90
2489;DHT22;1255;48.716;9.124;2023-11-19T19:34:31;10.30;99.90
2489;DHT22;1255;48.716;9.124;2023-11-19T19:36:58;10.30;99.90
2489;DHT22;1255;48.716;9.124;2023-11-19T19:39:26;10.30;99.90
2489;DHT22;1255;48.716;9.124;2023-11-19T19:41:54;10.30;99.90
2489;DHT22;1255;48.716;9.124;2023-11-19T19:44:36;10.20;99.90
2489;DHT22;1255;48.716;9.124;2023-11-19T19:47:11;10.20;99.90
2489;DHT22;1255;48.716;9.124;2023-11-19T19:49:40;10.30;99.90
2489;DHT22;1255;48.716;9.124;2023-11-19T19:52:13;10.30;99.90
2489;DHT22;1255;48.716;9.124;2023-11-19T19:54:43;10.30;99.90
2489;DHT22;1255;48.716;9.124;2023-11-19T19:57:13;10.40;99.90
2489;DHT22;1255;48.716;9.124;2023-11-19T19:59:40;10.40;99.90
2489;DHT22;1255;48.716;9.124;2023-11-19T20:02:11;10.40;99.90
2489;DHT22;1255;48.716;9.124;2023-11-19T20:04:44;10.50;99.90
2489;DHT22;1255;48.716;9.124;2023-11-19T20:07:13;10.50;99.90
2489;DHT22;1255;48.716;9.124;2023-11-19T20:09:50;10.50;99.90
2489;DHT22;1255;48.716;9.124;2023-11-19T20:12:18;10.50;99.90
2489;DHT22;1255;48.716;9.124;2023-11-19T20:14:45;10.50;99.90
2489;DHT22;1255;48.716;9.124;2023-11-19T20:17:11;10.60;99.90
2489;DHT22;1255;48.716;9.124;2023-11-19T20:19:38;10.60;99.90
2489;DHT22;1255;48.716;9.124;2023-11-19T20:22:07;10.60;99.90
2489;DHT22;1255;48.716;9.124;2023-11-19T20:24:34;10.60;99.90
2489;DHT22;1255;48.716;9.124;2023-11-19T20:27:02;10.60;99.90
2489;DHT22;1255;48.716;9.124;2023-11-19T20:29:29;10.60;99.90
2489;DHT22;1255;48.716;9.124;2023-11-19T20:31:56;10.60;99.90
2489;DHT22;1255;48.716;9.124;2023-11-19T20:34:23;10.50;99.90
2489;DHT22;1255;48.716;9.124;2023-11-19T20:36:51;10.50;99.90
2489;DHT22;1255;48.716;9.124;2023-11-19T20:39:19;10.50;99.90